KLBB/LBB METAR and TAF weather

Enter ICAO airport designator
Station Type Date Time Source
KLBB METAR 2023/01/30 10:53 UTC NOAA

KLBB 301053Z 03013KT 6SM -FZDZ BR OVC006 M08/M10 A3019 RMK AO2 FZDZB37 SLP245 P0000 I1000 T10831100 $


Station Type Date Time Source
KLBB Decoded METAR 2023/01/30 10:53 UTC NOAA

LUBBOCK INTERNATIONAL AIRPORT , TX, United States (KLBB) 33-40N 101-49W 992M
Jan 30, 2023 - 05:53 AM EST / 2023.01.30 1053 UTC
Wind: from the NNE (030 degrees) at 15 MPH (13 KT):0
Visibility: 6 mile(s):0
Sky conditions: overcast
Weather: light freezing drizzle; mist
Precipitation last hour: A trace
Temperature: 17.1 F (-8.3 C)
Windchill: 3 F (-16 C):1
Dew Point: 14.0 F (-10.0 C)
Relative Humidity: 87%
Pressure (altimeter): 30.19 in. Hg (1022 hPa)
ob: KLBB 301053Z 03013KT 6SM -FZDZ BR OVC006 M08/M10 A3019 RMK AO2 FZDZB37 SLP245 P0000 I1000 T10831100
cycle: 11

Station Type Date Time Source
KLBB TAF 2023/01/30 11:48 UTC NOAA

TAF
AMD KLBB 301046Z 3011/3106 09010KT 4SM -FZDZ BR OVC006
FM302000 VRB05KT P6SM OVC020

Example: see airport list